createdAt,value
2022-12-27T00:00:07.503Z,2.09
2022-12-27T00:01:07.524Z,1.79
2022-12-27T00:02:07.522Z,1.50
2022-12-27T00:03:07.535Z,1.70
2022-12-27T00:04:07.511Z,1.60
2022-12-27T00:05:07.465Z,1.60
2022-12-27T00:06:07.447Z,1.79
2022-12-27T00:07:07.435Z,1.10
2022-12-27T00:08:07.426Z,1.70
2022-12-27T00:09:07.421Z,1.50
2022-12-27T00:10:07.399Z,1.39
2022-12-27T00:11:07.404Z,1.39
2022-12-27T00:12:07.380Z,1.50
2022-12-27T00:13:07.605Z,1.60
2022-12-27T00:14:07.363Z,1.39
2022-12-27T00:15:07.377Z,1.39
2022-12-27T00:16:07.663Z,1.50
2022-12-27T00:17:07.340Z,1.39
2022-12-27T00:18:07.319Z,1.50
2022-12-27T00:19:07.327Z,1.70
2022-12-27T00:20:11.379Z,1.70
2022-12-27T00:21:07.302Z,1.39
2022-12-27T00:22:07.290Z,1.10
2022-12-27T00:23:07.277Z,1.60
2022-12-27T00:24:07.271Z,1.60
2022-12-27T00:25:07.260Z,1.39
2022-12-27T00:26:07.255Z,1.29
2022-12-27T00:27:07.238Z,2.09
2022-12-27T00:28:07.226Z,1.90
2022-12-27T00:29:07.214Z,1.70
2022-12-27T00:30:07.214Z,1.60
2022-12-27T00:31:07.237Z,1.50
2022-12-27T00:32:07.204Z,1.79
2022-12-27T00:33:07.183Z,1.70
2022-12-27T00:34:07.200Z,1.60
2022-12-27T00:35:07.169Z,1.39
2022-12-27T00:36:07.157Z,1.79
2022-12-27T00:37:07.145Z,1.70
2022-12-27T00:38:07.124Z,1.70
2022-12-27T00:39:07.123Z,1.29
2022-12-27T00:40:13.117Z,1.50
2022-12-27T00:41:07.100Z,1.70
2022-12-27T00:42:07.085Z,1.29
2022-12-27T00:43:07.079Z,1.50
2022-12-27T00:44:07.073Z,1.50
2022-12-27T00:45:07.058Z,1.79
2022-12-27T00:46:07.098Z,1.90
2022-12-27T00:47:07.050Z,1.70
2022-12-27T00:48:07.035Z,1.79
2022-12-27T00:49:07.093Z,1.70
2022-12-27T00:50:07.010Z,1.20
2022-12-27T00:51:07.001Z,1.90
2022-12-27T00:52:07.000Z,2.00
2022-12-27T00:53:06.973Z,1.90
2022-12-27T00:54:09.037Z,1.29
2022-12-27T00:55:06.950Z,2.20
2022-12-27T00:56:06.953Z,2.20
2022-12-27T00:57:06.927Z,1.39
2022-12-27T00:58:06.939Z,1.60
2022-12-27T00:59:07.136Z,2.09
2022-12-27T01:00:10.452Z,1.90
2022-12-27T01:01:06.934Z,1.39
2022-12-27T01:02:06.947Z,2.00
2022-12-27T01:03:06.870Z,2.00
2022-12-27T01:04:06.955Z,1.29
2022-12-27T01:05:12.851Z,1.79
2022-12-27T01:06:06.846Z,1.70
2022-12-27T01:07:06.823Z,1.79
2022-12-27T01:08:06.847Z,1.29
2022-12-27T01:09:06.887Z,1.39
2022-12-27T01:10:06.806Z,1.90
2022-12-27T01:11:06.867Z,1.60
2022-12-27T01:12:06.781Z,1.29
2022-12-27T01:13:12.821Z,1.10
2022-12-27T01:14:06.756Z,1.70
2022-12-27T01:15:06.742Z,1.70
2022-12-27T01:16:06.789Z,1.50
2022-12-27T01:17:06.732Z,1.39
2022-12-27T01:18:06.717Z,1.90
2022-12-27T01:19:06.763Z,1.60
2022-12-27T01:20:06.708Z,1.50
2022-12-27T01:21:12.686Z,1.29
2022-12-27T01:22:06.677Z,1.60
2022-12-27T01:23:06.662Z,1.39
2022-12-27T01:24:06.679Z,1.20
2022-12-27T01:25:06.844Z,1.39
2022-12-27T01:26:06.842Z,1.00
2022-12-27T01:27:06.623Z,1.20
2022-12-27T01:28:06.613Z,1.20
2022-12-27T01:29:06.597Z,1.10
2022-12-27T01:30:06.614Z,1.39
2022-12-27T01:31:06.584Z,1.39
2022-12-27T01:32:06.627Z,1.10
2022-12-27T01:33:06.558Z,1.00
2022-12-27T01:34:06.594Z,1.39
2022-12-27T01:35:06.538Z,1.20
2022-12-27T01:37:06.582Z,1.29
2022-12-27T01:38:06.516Z,1.20
2022-12-27T01:39:06.912Z,1.29
2022-12-27T01:40:06.560Z,1.20
2022-12-27T01:41:06.481Z,1.00
2022-12-27T01:42:06.482Z,1.29
2022-12-27T01:44:06.457Z,1.20
2022-12-27T01:45:06.444Z,1.29
2022-12-27T01:46:06.467Z,1.20
2022-12-27T01:47:06.414Z,1.10
2022-12-27T01:48:06.409Z,1.10
2022-12-27T01:49:06.590Z,1.29
2022-12-27T01:50:06.403Z,1.10
2022-12-27T01:51:06.376Z,1.10
2022-12-27T01:52:06.390Z,1.20
2022-12-27T01:53:06.357Z,1.10
2022-12-27T01:54:06.353Z,1.29
2022-12-27T01:55:06.335Z,1.29
2022-12-27T01:56:06.352Z,1.29
2022-12-27T01:57:06.323Z,1.20
2022-12-27T01:58:06.400Z,1.29
2022-12-27T01:59:06.310Z,1.20
2022-12-27T02:00:06.282Z,1.10
2022-12-27T02:01:06.335Z,1.20
2022-12-27T02:02:06.502Z,1.39
2022-12-27T02:03:06.428Z,1.50
2022-12-27T02:04:06.316Z,1.29
2022-12-27T02:05:06.243Z,1.20
2022-12-27T02:06:06.225Z,1.10
2022-12-27T02:07:06.246Z,1.00
2022-12-27T02:08:06.202Z,1.10
2022-12-27T02:09:06.205Z,1.29
2022-12-27T02:10:06.247Z,1.29
2022-12-27T02:11:06.190Z,1.29
2022-12-27T02:12:06.183Z,1.10
2022-12-27T02:13:06.162Z,1.20
2022-12-27T02:14:06.145Z,1.20
2022-12-27T02:15:06.140Z,1.20
2022-12-27T02:16:06.328Z,1.39
2022-12-27T02:17:06.171Z,1.29
2022-12-27T02:18:06.097Z,1.29
2022-12-27T02:19:06.109Z,1.60
2022-12-27T02:33:05.956Z,2.00
2022-12-27T02:34:05.932Z,1.20
2022-12-27T02:35:06.142Z,1.29
2022-12-27T02:36:05.923Z,1.29
2022-12-27T02:37:05.928Z,1.39
2022-12-27T02:38:05.896Z,1.20
2022-12-27T02:39:05.899Z,1.29
2022-12-27T02:40:05.884Z,1.70
2022-12-27T02:41:05.876Z,1.29
2022-12-27T02:42:05.869Z,1.39
2022-12-27T02:43:05.859Z,1.20
2022-12-27T02:44:05.854Z,1.50
2022-12-27T02:45:05.830Z,1.70
2022-12-27T02:46:05.865Z,1.29
2022-12-27T02:47:05.813Z,1.39
2022-12-27T02:48:05.811Z,2.20
2022-12-27T02:49:05.787Z,1.20
2022-12-27T02:50:05.772Z,1.60
2022-12-27T02:51:05.971Z,1.79
2022-12-27T02:52:11.770Z,1.50
2022-12-27T02:53:05.776Z,1.60
2022-12-27T02:54:05.733Z,1.39
2022-12-27T02:55:05.733Z,1.29
2022-12-27T02:56:05.916Z,1.29
2022-12-27T02:57:11.719Z,1.39
2022-12-27T02:58:05.686Z,1.10
2022-12-27T02:59:05.690Z,1.39
2022-12-27T03:00:05.693Z,1.90
2022-12-27T03:01:11.784Z,1.39
2022-12-27T03:02:05.818Z,1.79
2022-12-27T03:03:05.705Z,1.79
2022-12-27T03:04:05.697Z,1.79
2022-12-27T03:05:05.640Z,1.50
2022-12-27T03:06:05.608Z,1.90
2022-12-27T03:07:05.627Z,1.70
2022-12-27T03:08:05.604Z,2.20
2022-12-27T03:09:11.597Z,1.70
2022-12-27T03:10:05.654Z,2.09
2022-12-27T03:11:05.571Z,1.79
2022-12-27T03:12:05.546Z,1.90
2022-12-27T03:13:05.565Z,2.29
2022-12-27T03:14:05.550Z,1.79
2022-12-27T03:15:05.525Z,1.90
2022-12-27T03:16:05.655Z,2.00
2022-12-27T03:17:05.515Z,1.50
2022-12-27T03:18:05.484Z,1.90
2022-12-27T03:19:05.497Z,2.20
2022-12-27T03:20:05.542Z,1.90
2022-12-27T03:21:05.466Z,2.09
2022-12-27T03:22:05.490Z,1.79
2022-12-27T03:23:05.445Z,1.29
2022-12-27T03:24:05.432Z,1.90
2022-12-27T03:25:05.426Z,1.50
2022-12-27T03:26:05.485Z,1.79
2022-12-27T03:27:05.461Z,1.79
2022-12-27T03:28:05.588Z,1.20
2022-12-27T03:29:05.380Z,2.00
2022-12-27T03:30:05.376Z,1.79
2022-12-27T03:31:05.401Z,1.70
2022-12-27T03:32:05.390Z,1.70
2022-12-27T03:33:05.347Z,1.70
2022-12-27T03:34:05.336Z,1.39
2022-12-27T03:35:05.346Z,1.39
2022-12-27T03:36:05.317Z,1.39
2022-12-27T03:37:44.193Z,1.10
2022-12-27T03:38:44.139Z,1.20
2022-12-27T03:39:44.129Z,1.50
2022-12-27T03:40:44.133Z,1.50
2022-12-27T03:41:44.133Z,1.50
2022-12-27T03:42:44.306Z,1.39
2022-12-27T03:43:44.097Z,1.50
2022-12-27T03:44:44.073Z,1.60
2022-12-27T03:45:44.071Z,1.29
2022-12-27T03:46:44.124Z,1.60
2022-12-27T03:47:44.076Z,1.10
2022-12-27T03:48:44.039Z,1.50
2022-12-27T03:49:44.039Z,1.29
2022-12-27T03:50:44.029Z,1.20
2022-12-27T03:51:44.273Z,1.60
2022-12-27T03:52:43.990Z,1.50
2022-12-27T03:53:44.197Z,1.39
2022-12-27T03:54:43.986Z,1.39
2022-12-27T03:56:43.956Z,1.29
2022-12-27T04:42:43.481Z,1.50
2022-12-27T04:43:43.564Z,1.60
2022-12-27T04:44:43.495Z,1.20
2022-12-27T04:46:43.484Z,1.29
2022-12-27T06:50:16.915Z,1.60
2022-12-27T06:52:16.936Z,1.90
2022-12-27T06:53:16.901Z,1.60
2022-12-27T06:54:16.879Z,1.60
2022-12-27T06:57:16.905Z,1.70
2022-12-27T06:58:16.844Z,1.50
2022-12-27T06:59:16.912Z,1.70
2022-12-27T07:00:16.868Z,1.79
2022-12-27T07:01:16.973Z,2.00
2022-12-27T07:02:16.942Z,2.00
2022-12-27T07:03:16.871Z,1.79
2022-12-27T07:04:16.781Z,1.70
2022-12-27T07:05:16.774Z,2.09
2022-12-27T07:06:16.767Z,1.79
2022-12-27T07:07:59.507Z,1.60
2022-12-27T07:08:59.498Z,1.60
2022-12-27T07:09:59.770Z,1.90
2022-12-27T07:10:59.517Z,2.59
2022-12-27T07:11:59.519Z,1.39
2022-12-27T07:12:59.463Z,1.90
2022-12-27T07:13:59.547Z,2.00
2022-12-27T07:14:59.495Z,2.09
2022-12-27T07:15:59.421Z,1.79
2022-12-27T07:16:59.470Z,1.60
2022-12-27T07:17:59.404Z,1.90
2022-12-27T07:18:59.404Z,1.79
2022-12-27T07:19:59.394Z,1.70
2022-12-27T07:20:59.582Z,1.90
2022-12-27T07:21:59.375Z,1.50
2022-12-27T07:22:59.365Z,2.09
2022-12-27T07:23:59.558Z,1.79
2022-12-27T07:24:59.549Z,2.20
2022-12-27T07:25:59.324Z,2.29
2022-12-27T07:26:59.523Z,2.40
2022-12-27T07:27:59.502Z,3.09
2022-12-27T07:28:59.311Z,3.40
2022-12-27T07:29:59.280Z,3.20
2022-12-27T07:30:59.306Z,2.90
2022-12-27T07:31:59.309Z,3.20
2022-12-27T07:32:59.277Z,2.70
2022-12-27T07:33:59.258Z,3.09
2022-12-27T07:34:59.254Z,2.70
2022-12-27T07:35:59.227Z,2.90
2022-12-27T07:36:59.222Z,2.59
2022-12-27T07:37:59.417Z,2.50
2022-12-27T07:38:59.202Z,2.59
2022-12-27T07:39:59.189Z,2.79
2022-12-27T07:40:59.186Z,2.50
2022-12-27T07:42:04.701Z,2.59
2022-12-27T07:43:01.195Z,1.90
2022-12-27T07:43:59.174Z,1.60
2022-12-27T07:44:59.200Z,1.79
2022-12-27T07:45:59.183Z,1.70
2022-12-27T07:46:59.152Z,1.79
2022-12-27T07:47:59.113Z,1.70
2022-12-27T07:48:59.308Z,1.60
2022-12-27T07:49:59.205Z,1.60
2022-12-27T07:50:59.129Z,1.50
2022-12-27T07:51:59.391Z,1.50
2022-12-27T07:52:59.059Z,1.50
2022-12-27T07:53:59.148Z,1.70
2022-12-27T07:54:59.245Z,1.39
2022-12-27T07:55:59.047Z,1.90
2022-12-27T07:56:59.041Z,1.70
2022-12-27T07:58:05.222Z,1.79
2022-12-27T07:58:59.058Z,1.70
2022-12-27T07:59:59.000Z,1.90
2022-12-27T08:01:05.132Z,1.50
2022-12-27T08:01:59.063Z,1.60
2022-12-27T08:02:59.050Z,1.60
2022-12-27T08:04:04.956Z,1.60
2022-12-27T08:04:58.946Z,1.50
2022-12-27T08:05:59.125Z,1.70
2022-12-27T08:06:58.925Z,1.50
2022-12-27T08:07:58.903Z,1.50
2022-12-27T08:08:58.902Z,2.09
2022-12-27T08:09:58.886Z,1.79
2022-12-27T08:11:05.153Z,1.90
2022-12-27T08:11:59.930Z,1.90
2022-12-27T08:12:58.865Z,1.50
2022-12-27T08:13:58.882Z,2.20
2022-12-27T08:14:59.079Z,1.60
2022-12-27T08:15:58.851Z,2.40
2022-12-27T08:16:58.877Z,2.20
2022-12-27T08:17:58.810Z,2.90
2022-12-27T08:19:02.038Z,2.09
2022-12-27T08:19:59.834Z,2.29
2022-12-27T08:20:58.783Z,2.40
2022-12-27T08:21:58.760Z,2.40
2022-12-27T08:22:58.769Z,2.09
2022-12-27T08:24:04.770Z,2.29
2022-12-27T08:24:58.953Z,2.50
2022-12-27T08:25:58.729Z,2.50
2022-12-27T08:26:58.729Z,3.00
2022-12-27T08:27:58.727Z,2.70
2022-12-27T08:28:58.704Z,2.70
2022-12-27T08:29:58.685Z,3.29
2022-12-27T08:30:58.714Z,3.40
2022-12-27T08:32:04.690Z,3.29
2022-12-27T08:32:58.665Z,3.20
2022-12-27T08:33:58.986Z,3.20
2022-12-27T08:35:12.117Z,4.00
2022-12-27T08:35:59.679Z,3.50
2022-12-27T08:36:58.678Z,3.09
2022-12-27T08:37:58.676Z,3.09
2022-12-27T08:38:58.625Z,3.29
2022-12-27T08:40:02.671Z,2.70
2022-12-27T08:40:58.590Z,2.70
2022-12-27T08:41:58.770Z,3.00
2022-12-27T08:42:58.566Z,2.70
2022-12-27T08:43:58.757Z,2.70
2022-12-27T08:44:58.585Z,2.59
2022-12-27T08:45:58.570Z,2.90
2022-12-27T08:46:58.527Z,2.70
2022-12-27T08:47:58.714Z,2.29
2022-12-27T08:48:58.510Z,2.09
2022-12-27T08:49:58.690Z,2.40
2022-12-27T08:50:58.708Z,2.29
2022-12-27T08:51:58.672Z,1.90
2022-12-27T08:52:58.536Z,2.59
2022-12-27T08:53:58.487Z,2.90
2022-12-27T08:54:58.474Z,2.09
2022-12-27T08:55:58.503Z,2.40
2022-12-27T08:56:58.426Z,2.09
2022-12-27T08:57:58.406Z,2.50
2022-12-27T08:58:58.406Z,2.29
2022-12-27T09:00:04.397Z,1.79
2022-12-27T09:00:58.498Z,2.79
2022-12-27T09:01:58.465Z,3.00
2022-12-27T09:02:58.397Z,2.09
2022-12-27T09:03:58.356Z,3.50
2022-12-27T09:04:58.354Z,2.59
2022-12-27T09:05:58.327Z,2.20
2022-12-27T09:06:58.355Z,2.40
2022-12-27T09:07:58.309Z,2.20
2022-12-27T09:08:58.308Z,2.09
2022-12-27T09:09:58.290Z,2.40
2022-12-27T09:10:58.283Z,2.40
2022-12-27T09:11:58.278Z,2.50
2022-12-27T09:13:04.276Z,1.90
2022-12-27T09:13:58.243Z,2.20
2022-12-27T09:15:32.961Z,2.59
2022-12-27T09:16:32.934Z,2.50
2022-12-27T09:17:33.120Z,3.90
2022-12-27T09:18:38.920Z,2.29
2022-12-27T09:19:32.899Z,2.29
2022-12-27T09:20:32.895Z,3.00
2022-12-27T09:21:32.875Z,2.59
2022-12-27T09:22:33.217Z,2.50
2022-12-27T09:23:32.854Z,2.00
2022-12-27T09:24:33.046Z,2.50
2022-12-27T09:25:32.858Z,2.50
2022-12-27T09:26:32.828Z,2.59
2022-12-27T09:27:32.813Z,2.59
2022-12-27T09:28:32.814Z,2.50
2022-12-27T09:29:32.796Z,2.50
2022-12-27T09:30:32.797Z,2.40
2022-12-27T09:31:32.905Z,2.29
2022-12-27T09:32:32.765Z,2.29
2022-12-27T09:33:32.749Z,2.90
2022-12-27T09:34:32.757Z,2.40
2022-12-27T09:35:38.941Z,2.20
2022-12-27T09:36:32.744Z,2.50
2022-12-27T09:37:32.708Z,2.59
2022-12-27T09:38:38.766Z,2.50
2022-12-27T09:39:32.696Z,2.40
2022-12-27T09:40:38.747Z,2.29
2022-12-27T09:42:26.033Z,3.79
2022-12-27T09:42:50.771Z,2.09
2022-12-27T09:43:34.111Z,2.50
2022-12-27T09:44:32.698Z,2.40
2022-12-27T09:45:32.636Z,2.50
2022-12-27T09:46:32.782Z,1.79
2022-12-27T09:47:32.613Z,2.40
2022-12-27T09:48:33.464Z,2.29
2022-12-27T09:49:32.589Z,2.50
2022-12-27T09:50:32.591Z,2.29
2022-12-27T09:51:38.579Z,2.70
2022-12-27T09:52:32.573Z,3.29
2022-12-27T09:53:38.559Z,2.50
2022-12-27T09:54:32.775Z,3.09
2022-12-27T09:55:32.528Z,2.09
2022-12-27T09:57:01.752Z,2.59
2022-12-27T09:57:33.546Z,2.40
2022-12-27T09:58:32.504Z,2.20
2022-12-27T09:59:32.483Z,3.29
2022-12-27T10:00:34.398Z,2.59
2022-12-27T10:01:32.779Z,2.70
2022-12-27T10:02:32.537Z,2.00
2022-12-27T10:03:32.438Z,2.09
2022-12-27T10:05:00.856Z,1.90
2022-12-27T10:05:33.504Z,2.40
2022-12-27T10:06:32.413Z,2.00
2022-12-27T10:07:32.418Z,2.09
2022-12-27T10:08:32.395Z,1.70
2022-12-27T10:09:32.395Z,1.90
2022-12-27T10:10:32.402Z,1.60
2022-12-27T10:11:32.368Z,1.39
2022-12-27T10:12:32.360Z,1.90
2022-12-27T10:13:32.358Z,1.70
2022-12-27T10:14:38.336Z,1.79
2022-12-27T10:15:32.337Z,1.50
2022-12-27T10:16:32.718Z,1.70
2022-12-27T10:17:32.505Z,1.70
2022-12-27T10:18:38.296Z,1.39
2022-12-27T10:19:32.340Z,1.39
2022-12-27T10:20:32.473Z,1.29
2022-12-27T10:21:32.265Z,1.39
2022-12-27T10:23:11.258Z,1.29
2022-12-27T10:24:17.252Z,1.20
2022-12-27T10:25:11.274Z,1.39
2022-12-27T10:26:11.311Z,1.39
2022-12-27T10:27:17.636Z,1.50
2022-12-27T10:28:11.201Z,1.39
2022-12-27T10:29:17.419Z,1.60
2022-12-27T10:30:11.192Z,1.70
2022-12-27T10:31:11.227Z,1.90
2022-12-27T10:32:11.217Z,1.70
2022-12-27T10:33:11.151Z,1.60
2022-12-27T10:34:13.682Z,1.79
2022-12-27T10:35:11.140Z,1.29
2022-12-27T10:36:11.113Z,1.60
2022-12-27T10:37:11.298Z,1.70
2022-12-27T10:38:11.079Z,1.60
2022-12-27T10:39:11.073Z,1.50
2022-12-27T10:40:11.054Z,1.29
2022-12-27T10:41:11.049Z,1.60
2022-12-27T10:42:11.062Z,1.70
2022-12-27T10:43:11.034Z,1.50
2022-12-27T10:44:11.224Z,1.29
2022-12-27T10:45:11.039Z,1.20
2022-12-27T10:46:11.041Z,1.60
2022-12-27T10:47:11.058Z,1.29
2022-12-27T10:48:11.089Z,1.39
2022-12-27T10:49:20.516Z,1.20
2022-12-27T10:50:12.055Z,1.29
2022-12-27T10:51:11.175Z,0.90
2022-12-27T10:52:11.357Z,1.10
2022-12-27T10:53:11.131Z,1.00
2022-12-27T10:54:10.907Z,1.10
2022-12-27T10:55:10.901Z,1.29
2022-12-27T10:56:10.884Z,1.10
2022-12-27T10:57:10.884Z,1.00
2022-12-27T10:58:11.115Z,1.20
2022-12-27T10:59:11.065Z,1.20
2022-12-27T11:00:10.875Z,1.29
2022-12-27T11:01:10.881Z,1.00
2022-12-27T11:02:10.916Z,1.20
2022-12-27T11:03:10.818Z,1.20
2022-12-27T11:04:14.474Z,1.10
2022-12-27T11:05:11.845Z,0.90
2022-12-27T11:06:10.775Z,1.10
2022-12-27T11:07:10.971Z,1.10
2022-12-27T11:08:10.761Z,0.80
2022-12-27T11:09:10.833Z,1.29
2022-12-27T11:10:10.798Z,1.20
2022-12-27T11:11:10.807Z,1.00
2022-12-27T11:12:10.726Z,1.10
2022-12-27T11:13:10.727Z,1.20
2022-12-27T11:14:10.757Z,1.10
2022-12-27T11:15:10.697Z,1.39
2022-12-27T11:16:10.989Z,1.10
2022-12-27T11:17:10.867Z,1.20
2022-12-27T11:18:10.662Z,1.00
2022-12-27T11:19:10.648Z,1.29
2022-12-27T11:20:10.637Z,1.20
2022-12-27T11:21:17.655Z,1.10
2022-12-27T11:22:10.819Z,1.29
2022-12-27T11:23:10.614Z,1.10
2022-12-27T11:24:10.583Z,1.20
2022-12-27T11:25:10.583Z,1.29
2022-12-27T11:26:10.563Z,1.00
2022-12-27T11:27:10.575Z,1.20
2022-12-27T11:28:10.757Z,1.29
2022-12-27T11:29:16.632Z,1.20
2022-12-27T11:30:10.517Z,1.60
2022-12-27T11:31:16.618Z,1.20
2022-12-27T11:32:10.505Z,1.29
2022-12-27T11:33:10.492Z,1.29
2022-12-27T11:34:10.483Z,1.10
2022-12-27T11:35:10.479Z,1.39
2022-12-27T11:36:10.658Z,1.29
2022-12-27T11:37:10.461Z,1.29
2022-12-27T11:38:10.434Z,1.20
2022-12-27T11:39:10.461Z,1.39
2022-12-27T11:40:10.418Z,1.29
2022-12-27T11:41:16.630Z,1.29
2022-12-27T11:42:10.393Z,1.70
2022-12-27T11:43:10.447Z,1.20
2022-12-27T11:44:10.373Z,1.60
2022-12-27T11:45:10.804Z,2.20
2022-12-27T11:46:10.357Z,1.50
2022-12-27T11:47:10.385Z,2.90
2022-12-27T11:48:10.325Z,2.50
2022-12-27T11:49:10.345Z,2.20
2022-12-27T11:50:10.302Z,1.39
2022-12-27T11:51:10.303Z,1.50
2022-12-27T11:52:10.304Z,1.50
2022-12-27T11:53:10.299Z,1.29
2022-12-27T11:54:10.261Z,2.29
2022-12-27T11:55:10.358Z,1.20
2022-12-27T11:56:16.260Z,1.00
2022-12-27T11:57:10.349Z,1.39
2022-12-27T11:58:10.215Z,1.29
2022-12-27T11:59:10.293Z,1.10
2022-12-27T12:00:10.199Z,1.10
2022-12-27T12:01:10.222Z,1.60
2022-12-27T12:02:10.322Z,1.90
2022-12-27T12:03:10.422Z,1.10
2022-12-27T12:04:10.152Z,1.00
2022-12-27T12:05:49.108Z,1.10
2022-12-27T12:06:49.095Z,1.10
2022-12-27T12:07:48.898Z,1.20
2022-12-27T12:08:48.853Z,1.29
2022-12-27T12:09:50.919Z,1.10
2022-12-27T12:10:48.883Z,1.29
2022-12-27T12:11:54.599Z,1.39
2022-12-27T12:12:50.136Z,1.50
2022-12-27T12:13:55.079Z,1.29
2022-12-27T12:14:54.822Z,1.10
2022-12-27T12:15:48.776Z,1.50
2022-12-27T12:16:48.816Z,1.39
2022-12-27T12:17:48.803Z,1.39
2022-12-27T12:18:48.763Z,1.50
2022-12-27T12:19:48.737Z,1.29
2022-12-27T12:20:51.163Z,0.90
2022-12-27T12:21:48.733Z,1.20
2022-12-27T12:22:48.925Z,1.60
2022-12-27T12:23:48.702Z,1.29
2022-12-27T12:24:48.710Z,1.20
2022-12-27T12:25:48.680Z,1.29
2022-12-27T12:26:54.180Z,1.00
2022-12-27T12:27:49.702Z,1.10
2022-12-27T12:29:01.649Z,1.39
2022-12-27T12:29:49.690Z,1.10
2022-12-27T12:30:48.641Z,1.10
2022-12-27T12:31:48.686Z,1.10
2022-12-27T12:32:48.645Z,1.10
2022-12-27T12:33:48.792Z,1.10
2022-12-27T12:34:48.593Z,1.20
2022-12-27T12:35:48.574Z,1.20
2022-12-27T12:36:52.470Z,1.10
2022-12-27T12:37:48.629Z,1.39
2022-12-27T12:38:54.574Z,1.39
2022-12-27T12:39:48.537Z,1.00
2022-12-27T12:40:48.525Z,1.20
2022-12-27T12:41:48.745Z,1.29
2022-12-27T12:42:48.516Z,1.29
2022-12-27T12:43:48.493Z,0.90
2022-12-27T12:44:48.485Z,1.00
2022-12-27T12:45:48.524Z,1.10
2022-12-27T12:46:54.686Z,1.20
2022-12-27T12:47:48.462Z,1.00
2022-12-27T12:48:48.493Z,1.20
2022-12-27T12:49:48.429Z,1.10
2022-12-27T12:50:48.430Z,1.29
2022-12-27T12:51:48.603Z,1.39
2022-12-27T12:52:48.417Z,1.39
2022-12-27T12:53:48.581Z,1.20
2022-12-27T12:54:48.595Z,1.60
2022-12-27T12:55:48.377Z,1.10
2022-12-27T12:56:48.374Z,1.20
2022-12-27T12:57:48.549Z,1.29
2022-12-27T12:58:48.544Z,1.29
2022-12-27T12:59:48.522Z,1.39
2022-12-27T13:00:48.414Z,1.39
2022-12-27T13:01:50.985Z,1.29
2022-12-27T13:02:48.396Z,1.29
2022-12-27T13:03:48.282Z,1.39
2022-12-27T13:04:48.322Z,2.00
2022-12-27T13:05:48.490Z,1.29
2022-12-27T13:06:48.274Z,1.50
2022-12-27T13:07:48.235Z,1.50
2022-12-27T13:08:48.296Z,1.50
2022-12-27T13:09:48.303Z,1.39
2022-12-27T13:10:48.221Z,1.29
2022-12-27T13:11:48.407Z,1.20
2022-12-27T13:12:52.644Z,1.50
2022-12-27T13:13:48.182Z,1.29
2022-12-27T13:14:48.175Z,1.29
2022-12-27T13:15:48.173Z,1.39
2022-12-27T13:16:48.211Z,1.39
2022-12-27T13:17:48.154Z,1.39
2022-12-27T13:18:48.229Z,1.20
2022-12-27T13:19:48.315Z,1.00
2022-12-27T13:20:48.167Z,1.00
2022-12-27T13:21:48.097Z,1.10
2022-12-27T13:22:48.092Z,1.29
2022-12-27T13:23:48.072Z,1.20
2022-12-27T13:24:48.265Z,1.10
2022-12-27T13:25:48.048Z,1.50
2022-12-27T13:26:48.059Z,1.29
2022-12-27T13:27:48.030Z,1.29
2022-12-27T13:28:48.032Z,1.29
2022-12-27T13:29:48.007Z,1.50
2022-12-27T13:30:48.090Z,1.10
2022-12-27T13:31:47.986Z,1.39
2022-12-27T13:32:47.997Z,1.20
2022-12-27T13:33:48.172Z,1.29
2022-12-27T13:34:47.964Z,1.39
2022-12-27T13:35:48.146Z,1.39
2022-12-27T13:36:47.973Z,1.10
2022-12-27T13:37:47.926Z,1.39
2022-12-27T13:38:47.955Z,1.60
2022-12-27T13:39:47.910Z,1.50
2022-12-27T13:40:47.909Z,2.00
2022-12-27T13:41:48.369Z,1.39
2022-12-27T13:42:47.951Z,1.20
2022-12-27T13:43:47.890Z,1.39
2022-12-27T13:44:48.116Z,1.39
2022-12-27T13:45:48.415Z,1.50
2022-12-27T13:46:48.464Z,1.39
2022-12-27T13:47:48.225Z,1.39
2022-12-27T13:48:48.246Z,1.50
2022-12-27T13:49:53.832Z,1.29
2022-12-27T13:50:47.800Z,1.39
2022-12-27T13:51:47.923Z,1.39
2022-12-27T13:52:48.248Z,1.60
2022-12-27T13:53:47.773Z,1.60
2022-12-27T13:54:47.797Z,1.29
2022-12-27T13:55:47.749Z,1.20
2022-12-27T13:56:55.679Z,1.29
2022-12-27T13:57:49.717Z,1.00
2022-12-27T13:58:59.383Z,1.10
2022-12-27T13:59:48.747Z,1.39
2022-12-27T14:00:47.905Z,1.50
2022-12-27T14:01:47.785Z,1.39
2022-12-27T14:02:47.941Z,1.29
2022-12-27T14:03:47.869Z,1.10
2022-12-27T14:04:47.691Z,1.10
2022-12-27T14:05:47.842Z,1.29
2022-12-27T14:06:47.879Z,1.29
2022-12-27T14:07:47.626Z,1.50
2022-12-27T14:08:48.128Z,1.29
2022-12-27T14:09:53.609Z,1.20
2022-12-27T14:10:47.604Z,1.39
2022-12-27T14:11:47.596Z,1.20
2022-12-27T14:12:47.588Z,1.39
2022-12-27T14:13:47.569Z,2.20
2022-12-27T14:14:47.613Z,1.29
2022-12-27T14:15:47.588Z,1.20
2022-12-27T14:16:47.962Z,1.39
2022-12-27T14:17:47.509Z,1.90
2022-12-27T14:18:47.522Z,1.20
2022-12-27T14:19:47.512Z,1.00
2022-12-27T14:20:47.504Z,1.29
2022-12-27T14:21:47.543Z,1.29
2022-12-27T14:22:53.811Z,1.39
2022-12-27T14:23:48.496Z,1.10
2022-12-27T14:24:47.489Z,1.20
2022-12-27T14:25:47.436Z,1.39
2022-12-27T14:26:47.641Z,1.10
2022-12-27T14:27:47.486Z,1.39
2022-12-27T14:28:47.452Z,1.50
2022-12-27T14:29:47.391Z,1.39
2022-12-27T14:30:47.423Z,1.39
2022-12-27T14:31:53.588Z,1.39
2022-12-27T14:32:47.407Z,1.50
2022-12-27T14:33:47.364Z,1.50
2022-12-27T14:34:47.364Z,1.29
2022-12-27T14:35:47.542Z,1.39
2022-12-27T14:36:47.325Z,1.39
2022-12-27T14:37:47.332Z,1.70
2022-12-27T14:38:47.313Z,1.39
2022-12-27T14:39:53.739Z,1.00
2022-12-27T14:40:47.712Z,1.20
2022-12-27T14:41:47.470Z,1.20
2022-12-27T14:42:47.304Z,1.29
2022-12-27T14:43:47.450Z,1.29
2022-12-27T14:44:47.263Z,1.50
2022-12-27T14:45:50.004Z,1.00
2022-12-27T14:46:48.511Z,1.10
2022-12-27T14:47:47.207Z,1.29
2022-12-27T14:48:49.266Z,1.20
2022-12-27T14:49:47.199Z,0.90
2022-12-27T14:50:47.248Z,1.20
2022-12-27T14:52:00.385Z,1.20
2022-12-27T14:52:48.282Z,1.10
2022-12-27T14:53:47.146Z,1.20
2022-12-27T14:54:47.148Z,1.39
2022-12-27T14:55:47.360Z,1.20
2022-12-27T14:56:47.123Z,1.20
2022-12-27T14:57:47.120Z,1.29
2022-12-27T14:58:47.086Z,1.00
2022-12-27T14:59:47.106Z,1.20
2022-12-27T15:00:47.079Z,1.29
2022-12-27T15:01:53.211Z,1.50
2022-12-27T15:02:47.445Z,1.50
2022-12-27T15:03:47.123Z,1.39
2022-12-27T15:04:47.235Z,1.39
2022-12-27T15:05:47.072Z,1.50
2022-12-27T15:06:47.030Z,1.39
2022-12-27T15:07:47.011Z,2.29
2022-12-27T15:08:47.004Z,1.79
2022-12-27T15:09:47.203Z,2.09
2022-12-27T15:10:47.025Z,2.09
2022-12-27T15:11:46.985Z,2.09
2022-12-27T15:12:46.949Z,2.09
2022-12-27T15:13:46.986Z,2.00
2022-12-27T15:14:52.955Z,2.20
2022-12-27T15:15:46.939Z,1.70
2022-12-27T15:16:46.924Z,2.00
2022-12-27T15:17:46.902Z,1.79
2022-12-27T15:18:46.897Z,1.60
2022-12-27T15:19:46.895Z,1.39
2022-12-27T15:20:46.875Z,1.79
2022-12-27T15:21:47.278Z,1.50
2022-12-27T15:22:46.845Z,1.50
2022-12-27T15:23:46.907Z,1.39
2022-12-27T15:24:46.825Z,2.00
2022-12-27T15:25:52.835Z,1.79
2022-12-27T15:26:46.810Z,1.20
2022-12-27T15:27:46.830Z,2.00
2022-12-27T15:28:46.804Z,1.29
2022-12-27T15:29:46.779Z,1.39
2022-12-27T15:30:52.784Z,1.50
2022-12-27T15:31:46.763Z,1.20
2022-12-27T15:32:52.633Z,1.20
2022-12-27T15:33:47.782Z,1.39
2022-12-27T15:34:46.744Z,1.39
2022-12-27T15:35:46.720Z,1.70
2022-12-27T15:36:46.755Z,1.10
2022-12-27T15:37:52.714Z,1.90
2022-12-27T15:38:52.989Z,1.39
2022-12-27T15:39:47.724Z,1.29
2022-12-27T15:40:52.674Z,1.29
2022-12-27T15:41:46.662Z,1.39
2022-12-27T15:42:48.991Z,1.70
2022-12-27T15:43:46.675Z,1.20
2022-12-27T15:44:46.631Z,1.79
2022-12-27T15:45:46.704Z,1.39
2022-12-27T15:46:46.674Z,1.39
2022-12-27T15:47:46.604Z,1.50
2022-12-27T15:48:53.149Z,1.29
2022-12-27T15:49:48.792Z,1.60
2022-12-27T15:50:46.681Z,1.39
2022-12-27T15:51:46.553Z,1.79
2022-12-27T15:52:46.565Z,1.50
2022-12-27T15:53:46.547Z,1.50
2022-12-27T15:54:53.943Z,1.70
2022-12-27T15:55:46.518Z,1.50
2022-12-27T15:56:46.711Z,1.90
2022-12-27T15:57:46.494Z,2.50
2022-12-27T15:58:46.494Z,1.70
2022-12-27T15:59:46.498Z,2.09
2022-12-27T16:00:46.492Z,2.09
2022-12-27T16:01:46.582Z,2.09
2022-12-27T16:02:46.571Z,1.79
2022-12-27T16:03:52.530Z,2.50
2022-12-27T16:04:46.442Z,2.00
2022-12-27T16:12:46.405Z,2.09
2022-12-27T16:13:46.392Z,2.09
2022-12-27T16:14:46.375Z,2.09
2022-12-27T16:15:52.586Z,2.29
2022-12-27T16:16:46.363Z,2.09
2022-12-27T16:17:46.359Z,2.40
2022-12-27T16:18:46.333Z,2.20
2022-12-27T16:19:46.338Z,2.59
2022-12-27T16:20:52.375Z,2.70
2022-12-27T16:21:46.376Z,3.00
2022-12-27T16:22:52.357Z,2.90
2022-12-27T16:23:46.374Z,2.70
2022-12-27T16:24:46.328Z,2.70
2022-12-27T16:25:46.332Z,2.50
2022-12-27T16:26:46.318Z,2.40
2022-12-27T16:27:46.308Z,3.09
2022-12-27T16:28:46.291Z,2.20
2022-12-27T16:29:46.289Z,2.50
2022-12-27T16:30:52.281Z,2.50
2022-12-27T16:31:46.323Z,1.60
2022-12-27T16:32:52.265Z,2.09
2022-12-27T16:33:46.346Z,2.20
2022-12-27T16:34:46.297Z,2.40
2022-12-27T16:35:46.231Z,2.20